sensor_id;sensor_type;location;lat;lon;timestamp;P1;durP1;ratioP1;P2;durP2;ratioP2
11535;SDS011;5824;49.336;8.652;2023-01-30T00:00:58;21.57;;;12.90;;
11535;SDS011;5824;49.336;8.652;2023-01-30T00:03:25;22.20;;;12.20;;
11535;SDS011;5824;49.336;8.652;2023-01-30T00:05:52;22.77;;;12.67;;
11535;SDS011;5824;49.336;8.652;2023-01-30T00:08:18;25.30;;;13.33;;
11535;SDS011;5824;49.336;8.652;2023-01-30T00:10:44;22.60;;;13.03;;
11535;SDS011;5824;49.336;8.652;2023-01-30T00:13:10;22.40;;;12.97;;
11535;SDS011;5824;49.336;8.652;2023-01-30T00:15:38;22.33;;;12.80;;
11535;SDS011;5824;49.336;8.652;2023-01-30T00:18:04;22.27;;;11.53;;
11535;SDS011;5824;49.336;8.652;2023-01-30T00:20:29;25.77;;;13.17;;
11535;SDS011;5824;49.336;8.652;2023-01-30T00:22:55;25.73;;;10.40;;
11535;SDS011;5824;49.336;8.652;2023-01-30T00:25:22;22.93;;;11.53;;
11535;SDS011;5824;49.336;8.652;2023-01-30T00:27:48;24.47;;;12.53;;
11535;SDS011;5824;49.336;8.652;2023-01-30T00:30:14;24.37;;;13.07;;
11535;SDS011;5824;49.336;8.652;2023-01-30T00:32:39;20.30;;;12.30;;
11535;SDS011;5824;49.336;8.652;2023-01-30T00:35:05;24.43;;;12.43;;
11535;SDS011;5824;49.336;8.652;2023-01-30T00:37:31;23.53;;;14.57;;
11535;SDS011;5824;49.336;8.652;2023-01-30T00:39:56;23.33;;;11.57;;
11535;SDS011;5824;49.336;8.652;2023-01-30T00:42:22;30.97;;;12.53;;
11535;SDS011;5824;49.336;8.652;2023-01-30T00:45:08;22.20;;;12.43;;
11535;SDS011;5824;49.336;8.652;2023-01-30T00:47:53;23.70;;;12.13;;
11535;SDS011;5824;49.336;8.652;2023-01-30T00:50:19;23.40;;;13.10;;
11535;SDS011;5824;49.336;8.652;2023-01-30T00:52:44;22.13;;;12.27;;
11535;SDS011;5824;49.336;8.652;2023-01-30T00:55:10;24.97;;;11.27;;
11535;SDS011;5824;49.336;8.652;2023-01-30T00:57:35;24.53;;;12.30;;
11535;SDS011;5824;49.336;8.652;2023-01-30T01:00:01;16.00;;;8.30;;
11535;SDS011;5824;49.336;8.652;2023-01-30T01:02:29;22.77;;;12.33;;
11535;SDS011;5824;49.336;8.652;2023-01-30T01:04:55;24.43;;;13.80;;
11535;SDS011;5824;49.336;8.652;2023-01-30T01:07:21;21.70;;;12.70;;
11535;SDS011;5824;49.336;8.652;2023-01-30T01:09:46;27.13;;;12.17;;
11535;SDS011;5824;49.336;8.652;2023-01-30T01:12:12;23.20;;;12.20;;
11535;SDS011;5824;49.336;8.652;2023-01-30T01:14:37;21.13;;;10.83;;
11535;SDS011;5824;49.336;8.652;2023-01-30T01:17:03;22.93;;;11.30;;
11535;SDS011;5824;49.336;8.652;2023-01-30T01:19:28;20.00;;;11.50;;
11535;SDS011;5824;49.336;8.652;2023-01-30T01:21:54;19.10;;;10.17;;
11535;SDS011;5824;49.336;8.652;2023-01-30T01:24:19;21.10;;;11.90;;
11535;SDS011;5824;49.336;8.652;2023-01-30T01:26:45;25.67;;;13.13;;
11535;SDS011;5824;49.336;8.652;2023-01-30T01:29:11;21.47;;;11.90;;
11535;SDS011;5824;49.336;8.652;2023-01-30T01:31:38;23.10;;;11.13;;
11535;SDS011;5824;49.336;8.652;2023-01-30T01:34:03;22.30;;;12.20;;
11535;SDS011;5824;49.336;8.652;2023-01-30T01:36:29;22.07;;;12.07;;
11535;SDS011;5824;49.336;8.652;2023-01-30T01:38:54;22.37;;;12.10;;
11535;SDS011;5824;49.336;8.652;2023-01-30T01:41:20;22.90;;;11.60;;
11535;SDS011;5824;49.336;8.652;2023-01-30T01:46:37;21.03;;;10.53;;
11535;SDS011;5824;49.336;8.652;2023-01-30T01:49:14;21.77;;;11.07;;
11535;SDS011;5824;49.336;8.652;2023-01-30T01:51:47;19.97;;;10.60;;
11535;SDS011;5824;49.336;8.652;2023-01-30T01:54:17;20.13;;;10.90;;
11535;SDS011;5824;49.336;8.652;2023-01-30T01:56:50;20.00;;;10.73;;
11535;SDS011;5824;49.336;8.652;2023-01-30T01:59:19;20.50;;;10.43;;
11535;SDS011;5824;49.336;8.652;2023-01-30T02:01:57;17.27;;;9.80;;
11535;SDS011;5824;49.336;8.652;2023-01-30T02:04:27;14.57;;;8.30;;
11535;SDS011;5824;49.336;8.652;2023-01-30T02:07:14;19.90;;;11.57;;
11535;SDS011;5824;49.336;8.652;2023-01-30T02:09:42;19.00;;;10.10;;
11535;SDS011;5824;49.336;8.652;2023-01-30T02:12:08;20.97;;;11.50;;
11535;SDS011;5824;49.336;8.652;2023-01-30T02:14:37;19.40;;;9.20;;
11535;SDS011;5824;49.336;8.652;2023-01-30T02:17:03;18.57;;;10.70;;
11535;SDS011;5824;49.336;8.652;2023-01-30T02:28:05;20.70;;;11.27;;
11535;SDS011;5824;49.336;8.652;2023-01-30T02:33:18;22.03;;;11.20;;
11535;SDS011;5824;49.336;8.652;2023-01-30T02:40:58;21.97;;;11.50;;
11535;SDS011;5824;49.336;8.652;2023-01-30T02:46:10;23.87;;;12.07;;
11535;SDS011;5824;49.336;8.652;2023-01-30T02:48:46;22.03;;;11.60;;
11535;SDS011;5824;49.336;8.652;2023-01-30T02:51:33;23.70;;;12.97;;
11535;SDS011;5824;49.336;8.652;2023-01-30T02:54:01;21.80;;;10.07;;
11535;SDS011;5824;49.336;8.652;2023-01-30T02:56:26;22.07;;;12.40;;
11535;SDS011;5824;49.336;8.652;2023-01-30T02:58:55;23.73;;;12.13;;
11535;SDS011;5824;49.336;8.652;2023-01-30T03:04:08;22.00;;;11.80;;
11535;SDS011;5824;49.336;8.652;2023-01-30T03:06:52;21.30;;;11.70;;
11535;SDS011;5824;49.336;8.652;2023-01-30T03:09:51;22.07;;;12.20;;
11535;SDS011;5824;49.336;8.652;2023-01-30T03:12:40;24.47;;;12.00;;
11535;SDS011;5824;49.336;8.652;2023-01-30T03:15:37;24.07;;;12.10;;
11535;SDS011;5824;49.336;8.652;2023-01-30T03:18:04;23.20;;;13.17;;
11535;SDS011;5824;49.336;8.652;2023-01-30T03:20:35;22.40;;;12.30;;
11535;SDS011;5824;49.336;8.652;2023-01-30T03:23:02;22.53;;;12.30;;
11535;SDS011;5824;49.336;8.652;2023-01-30T03:25:27;25.97;;;12.17;;
11535;SDS011;5824;49.336;8.652;2023-01-30T03:27:53;23.00;;;12.80;;
11535;SDS011;5824;49.336;8.652;2023-01-30T03:30:19;22.33;;;12.07;;
11535;SDS011;5824;49.336;8.652;2023-01-30T03:32:46;22.97;;;12.63;;
11535;SDS011;5824;49.336;8.652;2023-01-30T03:35:12;22.13;;;11.20;;
11535;SDS011;5824;49.336;8.652;2023-01-30T03:37:37;24.33;;;12.00;;
11535;SDS011;5824;49.336;8.652;2023-01-30T03:40:03;23.50;;;12.73;;
11535;SDS011;5824;49.336;8.652;2023-01-30T03:42:29;25.80;;;12.87;;
11535;SDS011;5824;49.336;8.652;2023-01-30T03:44:55;23.57;;;12.97;;
11535;SDS011;5824;49.336;8.652;2023-01-30T03:47:20;21.33;;;11.93;;
11535;SDS011;5824;49.336;8.652;2023-01-30T03:49:46;19.20;;;11.57;;
11535;SDS011;5824;49.336;8.652;2023-01-30T03:52:11;23.33;;;12.40;;
11535;SDS011;5824;49.336;8.652;2023-01-30T03:54:37;21.90;;;11.27;;
11535;SDS011;5824;49.336;8.652;2023-01-30T03:57:02;23.50;;;12.00;;
11535;SDS011;5824;49.336;8.652;2023-01-30T03:59:28;22.47;;;12.37;;
11535;SDS011;5824;49.336;8.652;2023-01-30T04:01:54;19.50;;;11.30;;
11535;SDS011;5824;49.336;8.652;2023-01-30T04:04:19;22.23;;;12.93;;
11535;SDS011;5824;49.336;8.652;2023-01-30T04:06:45;20.23;;;11.43;;
11535;SDS011;5824;49.336;8.652;2023-01-30T04:09:10;22.07;;;12.20;;
11535;SDS011;5824;49.336;8.652;2023-01-30T04:11:36;23.37;;;13.00;;
11535;SDS011;5824;49.336;8.652;2023-01-30T04:14:02;23.87;;;12.73;;
11535;SDS011;5824;49.336;8.652;2023-01-30T04:16:27;23.93;;;11.93;;
11535;SDS011;5824;49.336;8.652;2023-01-30T04:18:53;21.63;;;12.07;;
11535;SDS011;5824;49.336;8.652;2023-01-30T04:21:18;24.17;;;12.43;;
11535;SDS011;5824;49.336;8.652;2023-01-30T04:23:45;21.30;;;12.00;;
11535;SDS011;5824;49.336;8.652;2023-01-30T04:26:10;21.77;;;11.80;;
11535;SDS011;5824;49.336;8.652;2023-01-30T04:28:37;24.30;;;12.70;;
11535;SDS011;5824;49.336;8.652;2023-01-30T04:31:04;19.50;;;11.67;;
11535;SDS011;5824;49.336;8.652;2023-01-30T04:33:30;20.90;;;10.77;;
11535;SDS011;5824;49.336;8.652;2023-01-30T04:35:59;21.00;;;10.40;;
11535;SDS011;5824;49.336;8.652;2023-01-30T04:38:26;19.93;;;10.90;;
11535;SDS011;5824;49.336;8.652;2023-01-30T04:40:53;18.40;;;10.83;;
11535;SDS011;5824;49.336;8.652;2023-01-30T04:43:20;19.27;;;10.00;;
11535;SDS011;5824;49.336;8.652;2023-01-30T04:45:47;20.53;;;10.90;;
11535;SDS011;5824;49.336;8.652;2023-01-30T04:48:14;13.00;;;7.40;;
11535;SDS011;5824;49.336;8.652;2023-01-30T04:50:41;20.10;;;11.23;;
11535;SDS011;5824;49.336;8.652;2023-01-30T04:53:08;20.33;;;11.03;;
11535;SDS011;5824;49.336;8.652;2023-01-30T04:55:33;23.60;;;12.67;;
11535;SDS011;5824;49.336;8.652;2023-01-30T04:57:59;21.60;;;10.43;;
11535;SDS011;5824;49.336;8.652;2023-01-30T05:00:25;20.73;;;11.30;;
11535;SDS011;5824;49.336;8.652;2023-01-30T05:02:51;21.63;;;11.23;;
11535;SDS011;5824;49.336;8.652;2023-01-30T05:05:17;25.97;;;14.27;;
11535;SDS011;5824;49.336;8.652;2023-01-30T05:07:43;22.80;;;11.80;;
11535;SDS011;5824;49.336;8.652;2023-01-30T05:10:08;21.33;;;11.77;;
11535;SDS011;5824;49.336;8.652;2023-01-30T05:12:34;24.67;;;12.93;;
11535;SDS011;5824;49.336;8.652;2023-01-30T05:15:00;20.97;;;10.57;;
11535;SDS011;5824;49.336;8.652;2023-01-30T05:17:26;21.93;;;11.43;;
11535;SDS011;5824;49.336;8.652;2023-01-30T05:19:51;20.80;;;11.20;;
11535;SDS011;5824;49.336;8.652;2023-01-30T05:22:17;20.10;;;10.97;;
11535;SDS011;5824;49.336;8.652;2023-01-30T05:24:42;18.43;;;10.57;;
11535;SDS011;5824;49.336;8.652;2023-01-30T05:27:08;17.00;;;10.33;;
11535;SDS011;5824;49.336;8.652;2023-01-30T05:29:33;19.13;;;9.97;;
11535;SDS011;5824;49.336;8.652;2023-01-30T05:31:59;17.60;;;9.10;;
11535;SDS011;5824;49.336;8.652;2023-01-30T05:34:24;19.97;;;10.20;;
11535;SDS011;5824;49.336;8.652;2023-01-30T05:36:50;20.87;;;10.80;;
11535;SDS011;5824;49.336;8.652;2023-01-30T05:39:16;12.60;;;6.90;;
11535;SDS011;5824;49.336;8.652;2023-01-30T05:41:41;20.10;;;12.03;;
11535;SDS011;5824;49.336;8.652;2023-01-30T05:44:07;16.20;;;10.30;;
11535;SDS011;5824;49.336;8.652;2023-01-30T05:46:33;18.83;;;10.00;;
11535;SDS011;5824;49.336;8.652;2023-01-30T05:48:59;14.83;;;7.13;;
11535;SDS011;5824;49.336;8.652;2023-01-30T05:51:25;16.70;;;9.47;;
11535;SDS011;5824;49.336;8.652;2023-01-30T05:53:52;16.23;;;9.80;;
11535;SDS011;5824;49.336;8.652;2023-01-30T05:56:18;17.90;;;10.03;;
11535;SDS011;5824;49.336;8.652;2023-01-30T05:58:51;16.20;;;9.50;;
11535;SDS011;5824;49.336;8.652;2023-01-30T06:01:17;19.30;;;9.90;;
11535;SDS011;5824;49.336;8.652;2023-01-30T06:03:43;17.17;;;9.40;;
11535;SDS011;5824;49.336;8.652;2023-01-30T06:06:08;18.13;;;10.00;;
11535;SDS011;5824;49.336;8.652;2023-01-30T06:08:35;12.93;;;7.80;;
11535;SDS011;5824;49.336;8.652;2023-01-30T06:11:02;16.17;;;9.57;;
11535;SDS011;5824;49.336;8.652;2023-01-30T06:13:30;20.90;;;9.57;;
11535;SDS011;5824;49.336;8.652;2023-01-30T06:15:56;18.13;;;9.73;;
11535;SDS011;5824;49.336;8.652;2023-01-30T06:18:21;15.63;;;9.60;;
11535;SDS011;5824;49.336;8.652;2023-01-30T06:20:48;15.20;;;9.23;;
11535;SDS011;5824;49.336;8.652;2023-01-30T06:23:14;16.50;;;9.70;;
11535;SDS011;5824;49.336;8.652;2023-01-30T06:25:43;18.67;;;8.93;;
11535;SDS011;5824;49.336;8.652;2023-01-30T06:28:10;18.93;;;9.33;;
11535;SDS011;5824;49.336;8.652;2023-01-30T06:30:36;15.03;;;8.23;;
11535;SDS011;5824;49.336;8.652;2023-01-30T06:33:01;18.43;;;10.20;;
11535;SDS011;5824;49.336;8.652;2023-01-30T06:35:27;16.57;;;9.50;;
11535;SDS011;5824;49.336;8.652;2023-01-30T06:37:52;16.40;;;9.57;;
11535;SDS011;5824;49.336;8.652;2023-01-30T06:40:18;13.23;;;7.67;;
11535;SDS011;5824;49.336;8.652;2023-01-30T06:42:47;18.33;;;8.90;;
11535;SDS011;5824;49.336;8.652;2023-01-30T06:45:14;18.03;;;10.60;;
11535;SDS011;5824;49.336;8.652;2023-01-30T06:47:48;17.23;;;9.20;;
11535;SDS011;5824;49.336;8.652;2023-01-30T06:50:16;17.80;;;9.57;;
11535;SDS011;5824;49.336;8.652;2023-01-30T06:52:43;14.67;;;7.83;;
11535;SDS011;5824;49.336;8.652;2023-01-30T06:55:10;16.90;;;8.60;;
11535;SDS011;5824;49.336;8.652;2023-01-30T06:57:37;16.93;;;9.73;;
11535;SDS011;5824;49.336;8.652;2023-01-30T07:00:03;17.27;;;8.90;;
11535;SDS011;5824;49.336;8.652;2023-01-30T07:02:30;18.93;;;10.20;;
11535;SDS011;5824;49.336;8.652;2023-01-30T07:04:59;17.80;;;9.90;;
11535;SDS011;5824;49.336;8.652;2023-01-30T07:07:29;16.80;;;9.00;;
11535;SDS011;5824;49.336;8.652;2023-01-30T07:09:55;13.73;;;7.37;;
11535;SDS011;5824;49.336;8.652;2023-01-30T07:12:21;12.13;;;7.30;;
11535;SDS011;5824;49.336;8.652;2023-01-30T07:14:47;13.73;;;7.93;;
11535;SDS011;5824;49.336;8.652;2023-01-30T07:17:12;6.47;;;4.07;;
11535;SDS011;5824;49.336;8.652;2023-01-30T07:19:38;15.97;;;9.27;;
11535;SDS011;5824;49.336;8.652;2023-01-30T07:22:04;15.20;;;8.00;;
11535;SDS011;5824;49.336;8.652;2023-01-30T07:24:30;13.53;;;7.70;;
11535;SDS011;5824;49.336;8.652;2023-01-30T07:26:55;15.67;;;7.27;;
11535;SDS011;5824;49.336;8.652;2023-01-30T07:29:21;12.70;;;7.90;;
11535;SDS011;5824;49.336;8.652;2023-01-30T07:31:46;13.37;;;5.37;;
11535;SDS011;5824;49.336;8.652;2023-01-30T07:34:12;19.53;;;8.77;;
11535;SDS011;5824;49.336;8.652;2023-01-30T07:36:37;14.03;;;8.40;;
11535;SDS011;5824;49.336;8.652;2023-01-30T07:39:03;18.20;;;9.40;;
11535;SDS011;5824;49.336;8.652;2023-01-30T07:41:29;15.60;;;8.40;;
11535;SDS011;5824;49.336;8.652;2023-01-30T07:43:55;17.50;;;9.77;;
11535;SDS011;5824;49.336;8.652;2023-01-30T07:46:20;15.37;;;9.37;;
11535;SDS011;5824;49.336;8.652;2023-01-30T07:48:46;15.07;;;9.80;;
11535;SDS011;5824;49.336;8.652;2023-01-30T07:51:12;15.80;;;9.33;;
11535;SDS011;5824;49.336;8.652;2023-01-30T07:53:37;17.07;;;9.20;;
11535;SDS011;5824;49.336;8.652;2023-01-30T07:56:07;14.43;;;8.73;;
11535;SDS011;5824;49.336;8.652;2023-01-30T07:58:33;15.47;;;9.80;;
11535;SDS011;5824;49.336;8.652;2023-01-30T08:00:59;12.80;;;6.93;;
11535;SDS011;5824;49.336;8.652;2023-01-30T08:03:24;12.90;;;7.10;;
11535;SDS011;5824;49.336;8.652;2023-01-30T08:05:50;17.13;;;9.03;;
11535;SDS011;5824;49.336;8.652;2023-01-30T08:08:17;14.80;;;7.90;;
11535;SDS011;5824;49.336;8.652;2023-01-30T08:10:43;14.00;;;7.97;;
11535;SDS011;5824;49.336;8.652;2023-01-30T08:13:08;15.87;;;9.10;;
11535;SDS011;5824;49.336;8.652;2023-01-30T08:15:34;21.10;;;9.33;;
11535;SDS011;5824;49.336;8.652;2023-01-30T08:17:59;15.70;;;9.60;;
11535;SDS011;5824;49.336;8.652;2023-01-30T08:20:25;17.97;;;10.30;;
11535;SDS011;5824;49.336;8.652;2023-01-30T08:22:52;12.70;;;7.70;;
11535;SDS011;5824;49.336;8.652;2023-01-30T08:25:18;17.73;;;9.67;;
11535;SDS011;5824;49.336;8.652;2023-01-30T08:27:43;17.07;;;9.73;;
11535;SDS011;5824;49.336;8.652;2023-01-30T08:30:09;12.37;;;8.07;;
11535;SDS011;5824;49.336;8.652;2023-01-30T08:32:35;15.40;;;9.27;;
11535;SDS011;5824;49.336;8.652;2023-01-30T08:35:01;15.67;;;9.20;;
11535;SDS011;5824;49.336;8.652;2023-01-30T08:37:27;15.33;;;9.50;;
11535;SDS011;5824;49.336;8.652;2023-01-30T08:39:53;15.87;;;8.50;;
11535;SDS011;5824;49.336;8.652;2023-01-30T08:42:18;19.67;;;9.30;;
11535;SDS011;5824;49.336;8.652;2023-01-30T08:44:44;13.40;;;8.63;;
11535;SDS011;5824;49.336;8.652;2023-01-30T08:47:10;18.00;;;10.00;;
11535;SDS011;5824;49.336;8.652;2023-01-30T08:49:35;14.30;;;8.43;;
11535;SDS011;5824;49.336;8.652;2023-01-30T08:52:01;18.10;;;9.43;;
11535;SDS011;5824;49.336;8.652;2023-01-30T08:54:26;16.07;;;9.50;;
11535;SDS011;5824;49.336;8.652;2023-01-30T08:56:52;15.37;;;9.03;;
11535;SDS011;5824;49.336;8.652;2023-01-30T08:59:17;19.77;;;11.13;;
11535;SDS011;5824;49.336;8.652;2023-01-30T09:01:43;17.77;;;9.33;;
11535;SDS011;5824;49.336;8.652;2023-01-30T09:04:08;16.30;;;8.23;;
11535;SDS011;5824;49.336;8.652;2023-01-30T09:06:34;14.57;;;8.47;;
11535;SDS011;5824;49.336;8.652;2023-01-30T09:08:59;18.23;;;9.60;;
11535;SDS011;5824;49.336;8.652;2023-01-30T09:11:25;16.63;;;10.07;;
11535;SDS011;5824;49.336;8.652;2023-01-30T09:13:50;17.87;;;9.77;;
11535;SDS011;5824;49.336;8.652;2023-01-30T09:16:16;17.30;;;10.10;;
11535;SDS011;5824;49.336;8.652;2023-01-30T09:18:42;16.47;;;9.27;;
11535;SDS011;5824;49.336;8.652;2023-01-30T09:21:09;18.23;;;9.80;;
11535;SDS011;5824;49.336;8.652;2023-01-30T09:23:35;18.03;;;10.10;;
11535;SDS011;5824;49.336;8.652;2023-01-30T09:26:02;15.00;;;9.07;;
11535;SDS011;5824;49.336;8.652;2023-01-30T09:28:29;18.43;;;9.23;;
11535;SDS011;5824;49.336;8.652;2023-01-30T09:30:58;16.13;;;9.33;;
11535;SDS011;5824;49.336;8.652;2023-01-30T09:33:24;11.53;;;7.17;;
11535;SDS011;5824;49.336;8.652;2023-01-30T09:35:51;15.43;;;8.77;;
11535;SDS011;5824;49.336;8.652;2023-01-30T09:38:17;14.57;;;8.53;;
11535;SDS011;5824;49.336;8.652;2023-01-30T09:40:49;21.60;;;10.60;;
11535;SDS011;5824;49.336;8.652;2023-01-30T09:46:19;15.20;;;9.13;;
11535;SDS011;5824;49.336;8.652;2023-01-30T09:54:28;15.27;;;8.77;;
11535;SDS011;5824;49.336;8.652;2023-01-30T09:56:58;16.90;;;8.53;;
11535;SDS011;5824;49.336;8.652;2023-01-30T09:59:38;14.63;;;9.43;;
11535;SDS011;5824;49.336;8.652;2023-01-30T10:02:33;16.10;;;8.90;;
11535;SDS011;5824;49.336;8.652;2023-01-30T10:05:13;15.80;;;9.07;;
11535;SDS011;5824;49.336;8.652;2023-01-30T10:07:48;14.37;;;8.57;;
11535;SDS011;5824;49.336;8.652;2023-01-30T10:16:20;13.70;;;8.73;;
11535;SDS011;5824;49.336;8.652;2023-01-30T10:21:46;11.53;;;7.37;;
11535;SDS011;5824;49.336;8.652;2023-01-30T10:24:27;12.13;;;7.20;;
11535;SDS011;5824;49.336;8.652;2023-01-30T10:27:03;15.00;;;8.67;;
11535;SDS011;5824;49.336;8.652;2023-01-30T10:29:35;9.93;;;6.63;;
11535;SDS011;5824;49.336;8.652;2023-01-30T10:32:17;13.67;;;8.03;;
11535;SDS011;5824;49.336;8.652;2023-01-30T10:34:52;14.40;;;7.60;;
11535;SDS011;5824;49.336;8.652;2023-01-30T10:37:23;10.70;;;5.93;;
11535;SDS011;5824;49.336;8.652;2023-01-30T10:45:45;10.60;;;5.63;;
11535;SDS011;5824;49.336;8.652;2023-01-30T10:50:47;10.93;;;6.83;;
11535;SDS011;5824;49.336;8.652;2023-01-30T10:53:25;10.80;;;5.90;;
11535;SDS011;5824;49.336;8.652;2023-01-30T10:56:19;10.50;;;6.67;;
11535;SDS011;5824;49.336;8.652;2023-01-30T10:59:05;12.67;;;7.77;;
11535;SDS011;5824;49.336;8.652;2023-01-30T11:04:51;12.47;;;8.00;;
11535;SDS011;5824;49.336;8.652;2023-01-30T11:07:26;13.20;;;7.50;;
11535;SDS011;5824;49.336;8.652;2023-01-30T11:09:55;11.47;;;7.03;;
11535;SDS011;5824;49.336;8.652;2023-01-30T11:12:22;14.27;;;7.37;;
11535;SDS011;5824;49.336;8.652;2023-01-30T11:14:48;13.17;;;7.87;;
11535;SDS011;5824;49.336;8.652;2023-01-30T11:17:15;15.40;;;8.17;;
11535;SDS011;5824;49.336;8.652;2023-01-30T11:19:43;10.40;;;6.47;;
11535;SDS011;5824;49.336;8.652;2023-01-30T11:22:10;11.03;;;6.47;;
11535;SDS011;5824;49.336;8.652;2023-01-30T11:30:16;12.17;;;7.90;;
11535;SDS011;5824;49.336;8.652;2023-01-30T11:32:44;14.57;;;8.13;;
11535;SDS011;5824;49.336;8.652;2023-01-30T11:35:19;13.57;;;7.33;;
11535;SDS011;5824;49.336;8.652;2023-01-30T11:37:48;12.60;;;7.63;;
11535;SDS011;5824;49.336;8.652;2023-01-30T11:42:43;13.10;;;7.70;;
11535;SDS011;5824;49.336;8.652;2023-01-30T11:45:11;12.03;;;7.73;;
11535;SDS011;5824;49.336;8.652;2023-01-30T11:47:37;14.27;;;7.87;;
11535;SDS011;5824;49.336;8.652;2023-01-30T11:50:13;14.80;;;8.40;;
11535;SDS011;5824;49.336;8.652;2023-01-30T11:52:44;14.60;;;7.60;;
11535;SDS011;5824;49.336;8.652;2023-01-30T11:55:14;15.23;;;8.33;;
11535;SDS011;5824;49.336;8.652;2023-01-30T11:57:43;15.33;;;8.13;;
11535;SDS011;5824;49.336;8.652;2023-01-30T12:00:13;14.23;;;8.80;;
11535;SDS011;5824;49.336;8.652;2023-01-30T12:02:42;11.27;;;7.57;;
11535;SDS011;5824;49.336;8.652;2023-01-30T12:08:10;12.70;;;7.47;;
11535;SDS011;5824;49.336;8.652;2023-01-30T12:10:52;12.07;;;7.87;;
11535;SDS011;5824;49.336;8.652;2023-01-30T12:13:31;10.90;;;7.43;;
11535;SDS011;5824;49.336;8.652;2023-01-30T12:18:35;13.30;;;8.07;;
11535;SDS011;5824;49.336;8.652;2023-01-30T12:21:08;12.60;;;7.60;;
11535;SDS011;5824;49.336;8.652;2023-01-30T12:23:47;13.10;;;7.73;;
11535;SDS011;5824;49.336;8.652;2023-01-30T12:26:29;10.27;;;6.90;;
11535;SDS011;5824;49.336;8.652;2023-01-30T12:34:41;13.00;;;7.97;;
11535;SDS011;5824;49.336;8.652;2023-01-30T12:40:05;12.10;;;7.30;;
11535;SDS011;5824;49.336;8.652;2023-01-30T12:45:28;12.63;;;7.77;;
11535;SDS011;5824;49.336;8.652;2023-01-30T12:51:25;13.40;;;7.60;;
11535;SDS011;5824;49.336;8.652;2023-01-30T12:56:32;10.50;;;5.87;;
11535;SDS011;5824;49.336;8.652;2023-01-30T12:59:19;9.70;;;6.77;;
11535;SDS011;5824;49.336;8.652;2023-01-30T13:13:27;10.07;;;6.60;;
11535;SDS011;5824;49.336;8.652;2023-01-30T13:16:05;9.30;;;6.47;;
11535;SDS011;5824;49.336;8.652;2023-01-30T13:18:42;10.73;;;5.67;;
11535;SDS011;5824;49.336;8.652;2023-01-30T13:21:16;11.80;;;6.30;;
11535;SDS011;5824;49.336;8.652;2023-01-30T13:26:49;10.43;;;6.50;;
11535;SDS011;5824;49.336;8.652;2023-01-30T13:29:22;10.63;;;5.10;;
11535;SDS011;5824;49.336;8.652;2023-01-30T13:31:57;8.47;;;5.77;;
11535;SDS011;5824;49.336;8.652;2023-01-30T13:34:30;9.40;;;6.37;;
11535;SDS011;5824;49.336;8.652;2023-01-30T13:37:01;10.67;;;6.53;;
11535;SDS011;5824;49.336;8.652;2023-01-30T13:39:45;8.20;;;5.90;;
11535;SDS011;5824;49.336;8.652;2023-01-30T13:43:01;10.77;;;7.30;;
11535;SDS011;5824;49.336;8.652;2023-01-30T13:45:22;10.00;;;6.27;;
11535;SDS011;5824;49.336;8.652;2023-01-30T14:00:52;12.63;;;7.67;;
11535;SDS011;5824;49.336;8.652;2023-01-30T14:03:25;13.63;;;7.77;;
11535;SDS011;5824;49.336;8.652;2023-01-30T14:08:24;10.70;;;6.00;;
11535;SDS011;5824;49.336;8.652;2023-01-30T14:10:52;14.80;;;7.77;;
11535;SDS011;5824;49.336;8.652;2023-01-30T14:13:19;10.70;;;7.03;;
11535;SDS011;5824;49.336;8.652;2023-01-30T14:15:54;10.50;;;6.47;;
11535;SDS011;5824;49.336;8.652;2023-01-30T14:18:34;9.90;;;6.30;;
11535;SDS011;5824;49.336;8.652;2023-01-30T14:21:12;13.03;;;7.30;;
11535;SDS011;5824;49.336;8.652;2023-01-30T14:23:55;12.17;;;6.13;;
11535;SDS011;5824;49.336;8.652;2023-01-30T14:29:48;9.20;;;6.10;;
11535;SDS011;5824;49.336;8.652;2023-01-30T14:34:44;7.30;;;4.50;;
11535;SDS011;5824;49.336;8.652;2023-01-30T14:40:35;6.60;;;4.90;;
11535;SDS011;5824;49.336;8.652;2023-01-30T14:45:55;6.23;;;4.63;;
11535;SDS011;5824;49.336;8.652;2023-01-30T14:48:29;6.27;;;4.43;;
11535;SDS011;5824;49.336;8.652;2023-01-30T14:56:39;6.97;;;4.80;;
11535;SDS011;5824;49.336;8.652;2023-01-30T14:59:15;6.47;;;4.60;;
11535;SDS011;5824;49.336;8.652;2023-01-30T15:01:52;5.07;;;3.73;;
11535;SDS011;5824;49.336;8.652;2023-01-30T15:04:25;6.50;;;4.20;;
11535;SDS011;5824;49.336;8.652;2023-01-30T15:06:54;6.63;;;4.27;;
11535;SDS011;5824;49.336;8.652;2023-01-30T15:09:21;7.00;;;4.60;;
11535;SDS011;5824;49.336;8.652;2023-01-30T15:11:59;6.20;;;4.40;;
11535;SDS011;5824;49.336;8.652;2023-01-30T15:17:31;6.70;;;4.80;;
11535;SDS011;5824;49.336;8.652;2023-01-30T15:22:51;7.37;;;4.37;;
11535;SDS011;5824;49.336;8.652;2023-01-30T15:31:08;7.53;;;4.70;;
11535;SDS011;5824;49.336;8.652;2023-01-30T15:33:46;6.63;;;4.50;;
11535;SDS011;5824;49.336;8.652;2023-01-30T15:36:17;7.70;;;5.40;;
11535;SDS011;5824;49.336;8.652;2023-01-30T15:38:43;7.17;;;4.90;;
11535;SDS011;5824;49.336;8.652;2023-01-30T15:41:08;9.40;;;5.80;;
11535;SDS011;5824;49.336;8.652;2023-01-30T15:46:17;8.50;;;5.53;;
11535;SDS011;5824;49.336;8.652;2023-01-30T15:51:40;9.83;;;6.10;;
11535;SDS011;5824;49.336;8.652;2023-01-30T15:54:09;10.27;;;6.30;;
11535;SDS011;5824;49.336;8.652;2023-01-30T15:56:40;10.30;;;6.80;;
11535;SDS011;5824;49.336;8.652;2023-01-30T15:59:11;10.57;;;6.20;;
11535;SDS011;5824;49.336;8.652;2023-01-30T16:01:57;20.23;;;11.93;;
11535;SDS011;5824;49.336;8.652;2023-01-30T16:04:25;13.77;;;7.40;;
11535;SDS011;5824;49.336;8.652;2023-01-30T16:06:52;12.07;;;6.67;;
11535;SDS011;5824;49.336;8.652;2023-01-30T16:09:18;23.00;;;12.70;;
11535;SDS011;5824;49.336;8.652;2023-01-30T16:11:45;11.53;;;7.20;;
11535;SDS011;5824;49.336;8.652;2023-01-30T16:14:13;12.40;;;7.63;;
11535;SDS011;5824;49.336;8.652;2023-01-30T16:19:20;12.60;;;7.20;;
11535;SDS011;5824;49.336;8.652;2023-01-30T16:21:54;9.67;;;6.50;;
11535;SDS011;5824;49.336;8.652;2023-01-30T16:24:25;14.63;;;8.40;;
11535;SDS011;5824;49.336;8.652;2023-01-30T16:26:54;14.00;;;8.30;;
11535;SDS011;5824;49.336;8.652;2023-01-30T16:29:23;17.23;;;8.43;;
11535;SDS011;5824;49.336;8.652;2023-01-30T16:31:51;15.03;;;8.07;;
11535;SDS011;5824;49.336;8.652;2023-01-30T16:39:44;12.90;;;7.43;;
11535;SDS011;5824;49.336;8.652;2023-01-30T16:42:26;9.47;;;5.53;;
11535;SDS011;5824;49.336;8.652;2023-01-30T16:45:07;9.40;;;6.10;;
11535;SDS011;5824;49.336;8.652;2023-01-30T16:48:20;8.90;;;6.10;;
11535;SDS011;5824;49.336;8.652;2023-01-30T16:53:22;9.10;;;6.20;;
11535;SDS011;5824;49.336;8.652;2023-01-30T16:55:53;8.70;;;6.00;;
11535;SDS011;5824;49.336;8.652;2023-01-30T16:58:28;10.83;;;6.90;;
11535;SDS011;5824;49.336;8.652;2023-01-30T17:00:59;11.70;;;6.60;;
11535;SDS011;5824;49.336;8.652;2023-01-30T17:03:30;9.27;;;6.40;;
11535;SDS011;5824;49.336;8.652;2023-01-30T17:05:59;9.80;;;6.17;;
11535;SDS011;5824;49.336;8.652;2023-01-30T17:11:32;9.30;;;5.67;;
11535;SDS011;5824;49.336;8.652;2023-01-30T17:14:18;11.60;;;6.63;;
11535;SDS011;5824;49.336;8.652;2023-01-30T17:16:46;8.53;;;6.20;;
11535;SDS011;5824;49.336;8.652;2023-01-30T17:19:24;7.43;;;5.77;;
11535;SDS011;5824;49.336;8.652;2023-01-30T17:21:50;12.20;;;7.03;;
11535;SDS011;5824;49.336;8.652;2023-01-30T17:24:17;11.10;;;6.63;;
11535;SDS011;5824;49.336;8.652;2023-01-30T17:26:45;10.70;;;6.53;;
11535;SDS011;5824;49.336;8.652;2023-01-30T17:29:23;11.53;;;5.90;;
11535;SDS011;5824;49.336;8.652;2023-01-30T17:31:50;13.70;;;8.13;;
11535;SDS011;5824;49.336;8.652;2023-01-30T17:34:16;10.90;;;7.10;;
11535;SDS011;5824;49.336;8.652;2023-01-30T17:36:44;10.40;;;6.33;;
11535;SDS011;5824;49.336;8.652;2023-01-30T17:39:11;10.73;;;6.80;;